Maersk Vallvik — 9V8839 — position and weather

sailwx.info

Track history (hours):
 
Tides and Currents Weather Stations Pressure Air Temp Water Temp Dewpoint Dewpoint Depression Visibility Wind Speed Wind Dir Waves Ship Positions

Maersk Vallvik

Last reported at 2014-Aug-02 01:17 UTC. Time now 2014-Aug-02 04:30 UTC.
Position N 38°24' W 076°21'.

Length 180 m; draft 9.4 m.

Type: Ship. MMSI: 564837000.

Date/timePositionNaut miles runAvg speedWind from/ knotsBaromVisibWave heightAir tempDewpointWater temp
2014-Aug-02 01:17N 38°24' W 076°21'1418.6
2014-Aug-02 00:33N 38°37' W 076°26'1414.5
2014-Aug-01 23:34N 38°51' W 076°24'1414.3
2014-Aug-01 22:33N 39°06' W 076°24'1010.5
2014-Aug-01 21:33N 39°14' W 076°32'2 1.8
2014-Aug-01 20:34N 39°15' W 076°33'0 0.0
2014-Aug-01 19:33N 39°15' W 076°33'0 0.0
2014-Aug-01 18:33N 39°15' W 076°33'0 0.0
2014-Aug-01 17:33N 39°15' W 076°33'0 0.0
2014-Aug-01 16:33N 39°15' W 076°33'0 0.0
2014-Aug-01 15:33N 39°15' W 076°33'0 0.0
2014-Aug-01 14:33N 39°15' W 076°33'0 0.0
2014-Aug-01 13:33N 39°15' W 076°33'0 0.0
2014-Aug-01 12:33N 39°15' W 076°33'0 0.0
2014-Aug-01 11:34N 39°15' W 076°33'0 0.0
2014-Aug-01 10:33N 39°15' W 076°33'1 1.3
2014-Aug-01 09:33N 39°14' W 076°33'1110.6
2014-Aug-01 08:33N 39°06' W 076°24'1615.8
2014-Aug-01 07:33N 38°50' W 076°24'8917.7
2014-Aug-01 02:32N 37°23' W 076°05'1717.1
2014-Aug-01 01:33N 37°06' W 076°07'1615.7
2014-Aug-01 00:33N 36°55' W 075°54'11812.6
2014-Jul-31 15:14N 38°25' W 074°18'2813.9
2014-Jul-31 13:13N 38°51' W 074°06'1013.2
2014-Jul-31 12:28N 39°00' W 074°02'1313.2
2014-Jul-31 11:28N 39°14' W 073°60'1213.4
2014-Jul-31 10:33N 39°26' W 073°57'1313.3
2014-Jul-31 09:33N 39°39' W 073°54'1312.8
2014-Jul-31 08:33N 39°51' W 073°51'1313.3
2014-Jul-31 07:33N 40°05' W 073°50'1313.4
2014-Jul-31 06:33N 40°18' W 073°49'1010.5
2014-Jul-31 05:34N 40°28' W 073°52'1312.9
2014-Jul-31 04:34N 40°38' W 074°03'5 5.4
2014-Jul-31 03:33N 40°41' W 074°09'0 0.1
2014-Jul-31 02:33N 40°41' W 074°09'0 0.0
2014-Jul-31 01:33N 40°41' W 074°09'0 0.0
2014-Jul-31 00:27N 40°41' W 074°09'0 0.0
2014-Jul-30 23:33N 40°41' W 074°09'0 0.0
2014-Jul-30 22:33N 40°41' W 074°09'0 0.0
2014-Jul-30 21:33N 40°41' W 074°09'0 0.0
2014-Jul-30 20:33N 40°41' W 074°09'0 0.0
2014-Jul-30 19:30N 40°41' W 074°09'0 0.0
2014-Jul-30 18:33N 40°41' W 074°09'0 0.0
2014-Jul-30 17:33N 40°41' W 074°09'0 0.0
2014-Jul-30 16:33N 40°41' W 074°09'0 0.0
2014-Jul-30 15:24N 40°41' W 074°09'0 0.0
2014-Jul-30 14:27N 40°41' W 074°09'0 0.0
2014-Jul-30 13:33N 40°41' W 074°09'0 0.0
2014-Jul-30 12:30N 40°41' W 074°09'0 0.0
2014-Jul-30 11:34N 40°41' W 074°09'1 1.4
2014-Jul-30 10:34N 40°40' W 074°08'6 5.7
2014-Jul-30 09:34N 40°36' W 074°03'1211.9
2014-Jul-30 08:33N 40°28' W 073°51'8 8.1
2014-Jul-30 07:33N 40°24' W 073°42'1313.0
2014-Jul-30 06:34N 40°16' W 073°28'1514.6
2014-Jul-30 05:31N 40°07' W 073°12'1414.3
2014-Jul-30 04:33N 40°01' W 072°56'2014.0
2014-Jul-30 03:07N 39°51' W 072°33'813.9
2014-Jul-30 02:31N 39°46' W 072°24'1413.7
2014-Jul-30 01:30N 39°36' W 072°12'1314.2
2014-Jul-30 00:34N 39°25' W 072°02'1414.3
2014-Jul-29 23:33N 39°14' W 071°50'1413.6
2014-Jul-29 22:33N 39°04' W 071°39'1413.8
2014-Jul-29 21:34N 38°53' W 071°27'8 7.8
2014-Jul-29 20:33N 38°47' W 071°21'1512.2
2014-Jul-29 19:20N 38°36' W 071°09'1114.1
2014-Jul-29 18:34N 38°27' W 071°00'1414.2
2014-Jul-29 17:33N 38°16' W 070°49'  
Track history (hours):
 
Tides and Currents Weather Stations Pressure Air Temp Water Temp Dewpoint Dewpoint Depression Visibility Wind Speed Wind Dir Waves Ship Positions

Maersk Vallvik

Last reported at 2014-Aug-02 01:17 UTC. Time now 2014-Aug-02 04:30 UTC.
Position N 38°24' W 076°21'.

Length 180 m; draft 9.4 m.

Type: Ship. MMSI: 564837000.

Date/timePositionNaut miles runAvg speedWind from/ knotsBaromVisibWave heightAir tempDewpointWater temp
2014-Aug-02 01:17N 38°24' W 076°21'1418.6
2014-Aug-02 00:33N 38°37' W 076°26'1414.5
2014-Aug-01 23:34N 38°51' W 076°24'1414.3
2014-Aug-01 22:33N 39°06' W 076°24'1010.5
2014-Aug-01 21:33N 39°14' W 076°32'2 1.8
2014-Aug-01 20:34N 39°15' W 076°33'0 0.0
2014-Aug-01 19:33N 39°15' W 076°33'0 0.0
2014-Aug-01 18:33N 39°15' W 076°33'0 0.0
2014-Aug-01 17:33N 39°15' W 076°33'0 0.0
2014-Aug-01 16:33N 39°15' W 076°33'0 0.0
2014-Aug-01 15:33N 39°15' W 076°33'0 0.0
2014-Aug-01 14:33N 39°15' W 076°33'0 0.0
2014-Aug-01 13:33N 39°15' W 076°33'0 0.0
2014-Aug-01 12:33N 39°15' W 076°33'0 0.0
2014-Aug-01 11:34N 39°15' W 076°33'0 0.0
2014-Aug-01 10:33N 39°15' W 076°33'1 1.3
2014-Aug-01 09:33N 39°14' W 076°33'1110.6
2014-Aug-01 08:33N 39°06' W 076°24'1615.8
2014-Aug-01 07:33N 38°50' W 076°24'8917.7
2014-Aug-01 02:32N 37°23' W 076°05'1717.1
2014-Aug-01 01:33N 37°06' W 076°07'1615.7
2014-Aug-01 00:33N 36°55' W 075°54'11812.6
2014-Jul-31 15:14N 38°25' W 074°18'2813.9
2014-Jul-31 13:13N 38°51' W 074°06'1013.2
2014-Jul-31 12:28N 39°00' W 074°02'1313.2
2014-Jul-31 11:28N 39°14' W 073°60'1213.4
2014-Jul-31 10:33N 39°26' W 073°57'1313.3
2014-Jul-31 09:33N 39°39' W 073°54'1312.8
2014-Jul-31 08:33N 39°51' W 073°51'1313.3
2014-Jul-31 07:33N 40°05' W 073°50'1313.4
2014-Jul-31 06:33N 40°18' W 073°49'1010.5
2014-Jul-31 05:34N 40°28' W 073°52'1312.9
2014-Jul-31 04:34N 40°38' W 074°03'5 5.4
2014-Jul-31 03:33N 40°41' W 074°09'0 0.1
2014-Jul-31 02:33N 40°41' W 074°09'0 0.0
2014-Jul-31 01:33N 40°41' W 074°09'0 0.0
2014-Jul-31 00:27N 40°41' W 074°09'0 0.0
2014-Jul-30 23:33N 40°41' W 074°09'0 0.0
2014-Jul-30 22:33N 40°41' W 074°09'0 0.0
2014-Jul-30 21:33N 40°41' W 074°09'0 0.0
2014-Jul-30 20:33N 40°41' W 074°09'0 0.0
2014-Jul-30 19:30N 40°41' W 074°09'0 0.0
2014-Jul-30 18:33N 40°41' W 074°09'0 0.0
2014-Jul-30 17:33N 40°41' W 074°09'0 0.0
2014-Jul-30 16:33N 40°41' W 074°09'0 0.0
2014-Jul-30 15:24N 40°41' W 074°09'0 0.0
2014-Jul-30 14:27N 40°41' W 074°09'0 0.0
2014-Jul-30 13:33N 40°41' W 074°09'0 0.0
2014-Jul-30 12:30N 40°41' W 074°09'0 0.0
2014-Jul-30 11:34N 40°41' W 074°09'1 1.4
2014-Jul-30 10:34N 40°40' W 074°08'6 5.7
2014-Jul-30 09:34N 40°36' W 074°03'1211.9
2014-Jul-30 08:33N 40°28' W 073°51'8 8.1
2014-Jul-30 07:33N 40°24' W 073°42'1313.0
2014-Jul-30 06:34N 40°16' W 073°28'1514.6
2014-Jul-30 05:31N 40°07' W 073°12'1414.3
2014-Jul-30 04:33N 40°01' W 072°56'2014.0
2014-Jul-30 03:07N 39°51' W 072°33'813.9
2014-Jul-30 02:31N 39°46' W 072°24'1413.7
2014-Jul-30 01:30N 39°36' W 072°12'1314.2
2014-Jul-30 00:34N 39°25' W 072°02'1414.3
2014-Jul-29 23:33N 39°14' W 071°50'1413.6
2014-Jul-29 22:33N 39°04' W 071°39'1413.8
2014-Jul-29 21:34N 38°53' W 071°27'8 7.8
2014-Jul-29 20:33N 38°47' W 071°21'1512.2
2014-Jul-29 19:20N 38°36' W 071°09'1114.1
2014-Jul-29 18:34N 38°27' W 071°00'1414.2
2014-Jul-29 17:33N 38°16' W 070°49'  

Dump ship's entire track history